createdAt,value
2018-11-12T00:00:28.236Z,33.03
2018-11-12T00:02:58.021Z,35.10
2018-11-12T00:05:26.199Z,31.93
2018-11-12T00:07:55.348Z,36.37
2018-11-12T00:10:23.418Z,33.87
2018-11-12T00:12:51.560Z,35.60
2018-11-12T00:15:19.739Z,35.80
2018-11-12T00:17:47.943Z,34.97
2018-11-12T00:20:16.914Z,34.53
2018-11-12T00:22:45.742Z,34.77
2018-11-12T00:25:13.893Z,32.57
2018-11-12T00:27:42.235Z,34.80
2018-11-12T00:30:15.861Z,33.70
2018-11-12T00:32:44.719Z,37.20
2018-11-12T00:35:13.000Z,33.93
2018-11-12T00:37:42.053Z,35.97
2018-11-12T00:40:12.051Z,35.97
2018-11-12T00:42:40.513Z,33.87
2018-11-12T00:45:09.157Z,35.07
2018-11-12T00:47:37.286Z,36.13
2018-11-12T00:50:06.020Z,34.10
2018-11-12T00:52:34.097Z,32.63
2018-11-12T00:55:02.257Z,34.57
2018-11-12T00:57:30.372Z,36.80
2018-11-12T00:59:58.522Z,32.97
2018-11-12T01:02:26.707Z,34.63
2018-11-12T01:04:54.875Z,32.73
2018-11-12T01:07:23.045Z,33.37
2018-11-12T01:09:51.240Z,33.33
2018-11-12T01:12:19.380Z,37.93
2018-11-12T01:14:47.510Z,35.43
2018-11-12T01:17:15.635Z,33.27
2018-11-12T01:19:43.753Z,31.57
2018-11-12T01:22:11.899Z,33.90
2018-11-12T01:24:40.067Z,33.37
2018-11-12T01:27:08.261Z,32.30
2018-11-12T01:29:36.404Z,31.73
2018-11-12T01:32:04.771Z,32.70
2018-11-12T01:34:32.853Z,33.30
2018-11-12T01:37:01.009Z,31.90
2018-11-12T01:39:29.099Z,33.57
2018-11-12T01:41:57.171Z,32.43
2018-11-12T01:44:25.279Z,33.40
2018-11-12T01:46:53.453Z,32.13
2018-11-12T01:49:21.600Z,29.70
2018-11-12T01:51:49.795Z,31.70
2018-11-12T01:54:17.952Z,33.30
2018-11-12T01:56:46.131Z,33.73
2018-11-12T01:59:14.319Z,32.00
2018-11-12T02:01:42.491Z,33.70
2018-11-12T02:04:10.666Z,33.20
2018-11-12T02:06:38.811Z,31.03
2018-11-12T02:09:08.816Z,33.40
2018-11-12T02:11:36.823Z,34.07
2018-11-12T02:14:05.428Z,32.83
2018-11-12T02:16:33.563Z,33.57
2018-11-12T02:19:01.754Z,34.33
2018-11-12T02:21:29.889Z,32.73
2018-11-12T02:23:57.976Z,31.37
2018-11-12T02:26:26.072Z,32.47
2018-11-12T02:28:54.263Z,33.60
2018-11-12T02:31:22.537Z,32.50
2018-11-12T02:33:50.592Z,32.57
2018-11-12T02:36:18.753Z,31.33
2018-11-12T02:38:46.820Z,28.83
2018-11-12T02:41:14.927Z,30.40
2018-11-12T02:43:43.081Z,30.80
2018-11-12T02:46:11.262Z,30.57
2018-11-12T02:48:40.348Z,31.47
2018-11-12T02:51:08.628Z,31.97
2018-11-12T02:53:36.851Z,33.40
2018-11-12T02:56:04.974Z,32.57
2018-11-12T02:58:33.151Z,29.87
2018-11-12T03:01:01.335Z,34.03
2018-11-12T03:03:29.479Z,34.07
2018-11-12T03:05:57.575Z,31.37
2018-11-12T03:08:25.783Z,30.93
2018-11-12T03:10:53.955Z,31.73
2018-11-12T03:13:22.103Z,31.60
2018-11-12T03:15:50.283Z,32.27
2018-11-12T03:18:18.467Z,30.90
2018-11-12T03:20:46.787Z,34.03
2018-11-12T03:23:15.003Z,31.27
2018-11-12T03:25:43.192Z,31.30
2018-11-12T03:28:11.410Z,31.63
2018-11-12T03:30:39.614Z,31.53
2018-11-12T03:33:07.826Z,29.20
2018-11-12T03:35:35.991Z,33.90
2018-11-12T03:38:04.153Z,35.40
2018-11-12T03:40:32.318Z,30.53
2018-11-12T03:43:00.534Z,30.73
2018-11-12T03:45:28.661Z,27.17
2018-11-12T03:47:56.845Z,32.60
2018-11-12T03:50:25.320Z,34.40
2018-11-12T03:52:53.521Z,32.17
2018-11-12T03:55:22.572Z,32.30
2018-11-12T03:57:50.699Z,32.83
2018-11-12T04:00:21.035Z,31.00
2018-11-12T04:02:49.060Z,33.57
2018-11-12T04:05:17.286Z,32.20
2018-11-12T04:07:45.443Z,30.47
2018-11-12T04:10:17.402Z,32.23
2018-11-12T04:12:45.567Z,29.80
2018-11-12T04:15:17.019Z,31.27
2018-11-12T04:17:45.191Z,31.43
2018-11-12T04:20:14.508Z,33.50
2018-11-12T04:22:46.897Z,32.60
2018-11-12T04:25:15.036Z,31.83
2018-11-12T04:27:43.188Z,30.87
2018-11-12T04:30:13.306Z,30.27
2018-11-12T04:32:41.968Z,30.83
2018-11-12T04:35:10.453Z,30.80
2018-11-12T04:37:38.581Z,32.00
2018-11-12T04:40:09.617Z,33.33
2018-11-12T04:42:38.431Z,29.10
2018-11-12T04:45:07.552Z,32.80
2018-11-12T04:47:35.647Z,32.67
2018-11-12T04:50:03.973Z,31.67
2018-11-12T04:52:32.084Z,31.40
2018-11-12T04:55:00.210Z,28.87
2018-11-12T04:57:28.298Z,33.77
2018-11-12T04:59:56.447Z,29.63
2018-11-12T05:02:24.600Z,31.20
2018-11-12T05:04:52.783Z,29.70
2018-11-12T05:07:21.037Z,30.13
2018-11-12T05:09:49.121Z,29.43
2018-11-12T05:12:17.256Z,32.97
2018-11-12T05:14:45.381Z,28.73
2018-11-12T05:17:13.567Z,29.10
2018-11-12T05:19:41.747Z,29.10
2018-11-12T05:22:09.972Z,29.27
2018-11-12T05:24:38.111Z,29.57
2018-11-12T05:27:06.227Z,28.30
2018-11-12T05:29:34.316Z,29.33
2018-11-12T05:32:02.537Z,30.73
2018-11-12T05:34:30.669Z,30.30
2018-11-12T05:36:58.819Z,30.33
2018-11-12T05:39:26.904Z,28.00
2018-11-12T05:41:55.352Z,30.30
2018-11-12T05:44:23.468Z,31.90
2018-11-12T05:46:51.660Z,28.73
2018-11-12T05:49:19.826Z,28.67
2018-11-12T05:51:47.922Z,28.73
2018-11-12T05:54:16.071Z,30.83
2018-11-12T05:56:44.239Z,29.83
2018-11-12T05:59:12.420Z,30.20
2018-11-12T06:01:40.600Z,30.00
2018-11-12T06:04:08.781Z,30.33
2018-11-12T06:06:36.924Z,31.97
2018-11-12T06:09:07.944Z,30.77
2018-11-12T06:11:36.055Z,29.23
2018-11-12T06:14:04.231Z,31.00
2018-11-12T06:16:32.401Z,29.93
2018-11-12T06:19:00.567Z,30.93
2018-11-12T06:21:28.776Z,31.60
2018-11-12T06:23:56.916Z,30.60
2018-11-12T06:26:25.101Z,28.50
2018-11-12T06:28:53.269Z,29.67
2018-11-12T06:31:21.524Z,31.20
2018-11-12T06:33:49.638Z,29.90
2018-11-12T06:36:17.787Z,28.17
2018-11-12T06:38:46.018Z,30.17
2018-11-12T06:41:14.176Z,31.17
2018-11-12T06:43:42.311Z,29.90
2018-11-12T06:46:10.516Z,30.50
2018-11-12T06:48:38.676Z,32.00
2018-11-12T06:51:06.887Z,32.50
2018-11-12T06:53:35.050Z,32.27
2018-11-12T06:56:03.193Z,32.10
2018-11-12T06:58:31.352Z,33.67
2018-11-12T07:00:59.490Z,31.23
2018-11-12T07:03:27.608Z,32.00
2018-11-12T07:05:55.784Z,32.60
2018-11-12T07:08:23.991Z,31.23
2018-11-12T07:10:52.162Z,28.93
2018-11-12T07:13:20.404Z,29.57
2018-11-12T07:15:48.513Z,30.57
2018-11-12T07:18:16.671Z,31.90
2018-11-12T07:20:45.150Z,32.07
2018-11-12T07:23:13.407Z,31.97
2018-11-12T07:25:41.675Z,31.30
2018-11-12T07:28:09.780Z,34.10
2018-11-12T07:30:38.004Z,32.27
2018-11-12T07:33:06.144Z,30.50
2018-11-12T07:35:34.297Z,29.60
2018-11-12T07:38:02.509Z,32.87
2018-11-12T07:40:30.651Z,36.73
2018-11-12T07:42:58.800Z,31.93
2018-11-12T07:45:28.144Z,30.83
2018-11-12T07:47:56.875Z,29.17
2018-11-12T07:50:27.186Z,31.13
2018-11-12T07:52:55.379Z,32.27
2018-11-12T07:55:24.612Z,30.17
2018-11-12T07:57:53.951Z,30.27
2018-11-12T08:00:23.533Z,32.17
2018-11-12T08:02:55.218Z,30.77
2018-11-12T08:05:23.441Z,31.33
2018-11-12T08:07:51.791Z,30.63
2018-11-12T08:10:20.013Z,31.97
2018-11-12T08:12:48.441Z,30.13
2018-11-12T08:15:17.924Z,32.57
2018-11-12T08:17:46.154Z,29.00
2018-11-12T08:20:15.541Z,31.67
2018-11-12T08:22:44.828Z,31.53
2018-11-12T08:25:13.130Z,32.90
2018-11-12T08:27:41.700Z,31.80
2018-11-12T08:30:12.062Z,29.47
2018-11-12T08:32:40.369Z,30.00
2018-11-12T08:35:08.551Z,30.30
2018-11-12T08:37:36.699Z,28.53
2018-11-12T08:40:06.935Z,30.73
2018-11-12T08:42:35.068Z,29.93
2018-11-12T08:45:03.756Z,30.10
2018-11-12T08:47:32.147Z,30.20
2018-11-12T08:50:00.413Z,29.80
2018-11-12T08:52:28.472Z,28.30
2018-11-12T08:54:56.826Z,28.83
2018-11-12T08:57:24.843Z,31.10
2018-11-12T08:59:53.012Z,31.73
2018-11-12T09:02:21.209Z,29.10
2018-11-12T09:04:49.432Z,28.97
2018-11-12T09:07:17.934Z,30.40
2018-11-12T09:09:45.877Z,32.00
2018-11-12T09:12:14.036Z,30.00
2018-11-12T09:14:42.164Z,30.77
2018-11-12T09:17:10.414Z,31.13
2018-11-12T09:19:38.580Z,31.83
2018-11-12T09:22:06.681Z,30.97
2018-11-12T09:24:34.945Z,31.93
2018-11-12T09:27:03.106Z,32.77
2018-11-12T09:29:31.271Z,30.67
2018-11-12T09:31:59.335Z,28.70
2018-11-12T09:34:27.743Z,28.33
2018-11-12T09:36:55.872Z,30.97
2018-11-12T09:39:24.005Z,31.10
2018-11-12T09:41:52.171Z,29.23
2018-11-12T09:44:20.428Z,30.23
2018-11-12T09:46:48.601Z,28.87
2018-11-12T09:49:16.902Z,31.50
2018-11-12T09:51:44.888Z,29.63
2018-11-12T09:54:13.156Z,34.80
2018-11-12T09:56:41.257Z,31.80
2018-11-12T09:59:09.418Z,32.17
2018-11-12T10:01:37.876Z,30.53
2018-11-12T10:04:06.889Z,31.97
2018-11-12T10:06:35.898Z,32.27
2018-11-12T10:09:04.817Z,31.90
2018-11-12T10:11:33.858Z,33.53
2018-11-12T10:14:01.821Z,32.93
2018-11-12T10:16:30.082Z,32.47
2018-11-12T10:18:55.364Z,31.67
2018-11-12T10:21:23.560Z,32.00
2018-11-12T10:23:51.672Z,30.93
2018-11-12T10:26:19.858Z,28.73
2018-11-12T10:28:48.020Z,29.93
2018-11-12T10:31:16.204Z,29.40
2018-11-12T10:33:44.381Z,29.47
2018-11-12T10:36:12.504Z,29.20
2018-11-12T10:38:40.781Z,29.50
2018-11-12T10:41:08.964Z,28.33
2018-11-12T10:43:37.071Z,27.77
2018-11-12T10:46:05.483Z,28.97
2018-11-12T10:48:33.693Z,29.43
2018-11-12T10:51:05.168Z,29.47
2018-11-12T10:53:30.001Z,30.40
2018-11-12T10:55:58.311Z,27.80
2018-11-12T10:58:26.320Z,28.00
2018-11-12T11:01:00.650Z,27.70
2018-11-12T11:03:37.771Z,27.70
2018-11-12T11:06:06.897Z,29.33
2018-11-12T11:08:35.112Z,28.77
2018-11-12T11:11:03.316Z,31.77
2018-11-12T11:13:31.489Z,29.17
2018-11-12T11:15:59.632Z,31.50
2018-11-12T11:18:27.824Z,29.77
2018-11-12T11:20:57.116Z,30.00
2018-11-12T11:23:25.294Z,30.60
2018-11-12T11:25:53.416Z,30.67
2018-11-12T11:28:21.494Z,29.07
2018-11-12T11:30:50.380Z,28.30
2018-11-12T11:33:18.491Z,30.20
2018-11-12T11:35:46.646Z,30.17
2018-11-12T11:38:14.817Z,31.80
2018-11-12T11:40:43.090Z,28.70
2018-11-12T11:43:11.153Z,33.23
2018-11-12T11:45:39.428Z,29.87
2018-11-12T11:48:07.701Z,32.50
2018-11-12T11:50:35.747Z,30.10
2018-11-12T11:53:03.904Z,30.30
2018-11-12T11:55:32.048Z,29.67
2018-11-12T11:58:00.212Z,28.67
2018-11-12T12:00:29.219Z,28.60
2018-11-12T12:02:58.427Z,30.07
2018-11-12T12:05:27.235Z,31.00
2018-11-12T12:07:56.121Z,30.33
2018-11-12T12:10:24.266Z,30.60
2018-11-12T12:12:52.966Z,29.23
2018-11-12T12:15:22.051Z,29.60
2018-11-12T12:17:50.325Z,31.50
2018-11-12T12:20:22.649Z,30.13
2018-11-12T12:22:50.803Z,30.57
2018-11-12T12:25:19.371Z,29.63
2018-11-12T12:27:47.972Z,32.43
2018-11-12T12:30:18.371Z,32.40
2018-11-12T12:32:47.360Z,29.90
2018-11-12T12:35:15.637Z,30.57
2018-11-12T12:37:44.560Z,30.90
2018-11-12T12:40:13.935Z,31.03
2018-11-12T12:42:42.118Z,31.60
2018-11-12T12:45:11.860Z,31.50
2018-11-12T12:47:40.079Z,33.47
2018-11-12T12:50:09.464Z,32.70
2018-11-12T12:52:37.665Z,32.97
2018-11-12T12:55:06.178Z,31.03
2018-11-12T12:57:34.487Z,33.10
2018-11-12T13:00:02.848Z,32.07
2018-11-12T13:02:31.322Z,30.53
2018-11-12T13:04:59.821Z,30.47
2018-11-12T13:07:28.040Z,29.57
2018-11-12T13:09:56.130Z,26.30
2018-11-12T13:12:24.347Z,27.53
2018-11-12T13:14:52.614Z,26.90
2018-11-12T13:17:20.687Z,28.20
2018-11-12T13:19:48.837Z,30.20
2018-11-12T13:22:17.089Z,29.33
2018-11-12T13:24:45.297Z,30.07
2018-11-12T13:27:13.500Z,27.33
2018-11-12T13:29:41.660Z,30.37
2018-11-12T13:32:09.820Z,28.70
2018-11-12T13:34:38.012Z,29.53
2018-11-12T13:37:06.179Z,29.90
2018-11-12T13:39:34.425Z,29.40
2018-11-12T13:42:02.512Z,30.60
2018-11-12T13:44:30.652Z,30.53
2018-11-12T13:46:59.340Z,28.40
2018-11-12T13:49:27.527Z,30.30
2018-11-12T13:51:55.737Z,29.37
2018-11-12T13:54:23.861Z,29.00
2018-11-12T13:56:52.079Z,30.20
2018-11-12T13:59:20.240Z,29.57
2018-11-12T14:01:48.481Z,29.23
2018-11-12T14:04:16.713Z,30.80
2018-11-12T14:06:44.871Z,30.90
2018-11-12T14:09:13.171Z,30.17
2018-11-12T14:11:41.389Z,31.30
2018-11-12T14:14:09.800Z,30.10
2018-11-12T14:16:37.910Z,30.00
2018-11-12T14:19:06.264Z,28.70
2018-11-12T14:21:34.590Z,30.20
2018-11-12T14:24:03.090Z,30.70
2018-11-12T14:26:31.300Z,27.10
2018-11-12T14:28:59.443Z,29.53
2018-11-12T14:31:28.074Z,29.10
2018-11-12T14:33:56.214Z,27.53
2018-11-12T14:36:24.608Z,28.73
2018-11-12T14:38:53.233Z,29.60
2018-11-12T14:41:21.415Z,26.77
2018-11-12T14:43:49.846Z,29.70
2018-11-12T14:46:18.046Z,29.10
2018-11-12T14:48:47.470Z,29.90
2018-11-12T14:51:15.635Z,29.07
2018-11-12T14:53:43.752Z,29.60
2018-11-12T14:56:12.092Z,31.73
2018-11-12T14:58:40.264Z,29.30
2018-11-12T15:01:08.469Z,30.27
2018-11-12T15:03:36.712Z,30.00
2018-11-12T15:06:05.079Z,31.43
2018-11-12T15:08:33.196Z,29.43
2018-11-12T15:11:01.508Z,31.67
2018-11-12T15:13:29.637Z,30.10
2018-11-12T15:15:57.875Z,29.27
2018-11-12T15:18:26.032Z,32.03
2018-11-12T15:20:54.167Z,28.43
2018-11-12T15:23:22.399Z,31.10
2018-11-12T15:25:50.552Z,31.10
2018-11-12T15:28:18.719Z,29.67
2018-11-12T15:30:46.873Z,27.60
2018-11-12T15:33:15.211Z,28.43
2018-11-12T15:35:43.422Z,32.00
2018-11-12T15:38:11.593Z,30.67
2018-11-12T15:40:39.794Z,30.50
2018-11-12T15:43:08.001Z,33.80
2018-11-12T15:45:36.129Z,32.73
2018-11-12T15:48:04.732Z,32.53
2018-11-12T15:50:34.446Z,33.13
2018-11-12T15:53:02.595Z,30.90
2018-11-12T15:55:30.790Z,29.60
2018-11-12T15:57:58.954Z,31.83
2018-11-12T16:00:27.100Z,33.10
2018-11-12T16:02:55.419Z,32.80
2018-11-12T16:05:23.563Z,31.57
2018-11-12T16:07:51.772Z,34.90
2018-11-12T16:10:20.712Z,36.20
2018-11-12T16:12:48.800Z,33.20
2018-11-12T16:15:18.290Z,32.50
2018-11-12T16:17:46.375Z,31.70
2018-11-12T16:20:18.916Z,33.77
2018-11-12T16:22:47.794Z,31.77
2018-11-12T16:25:16.348Z,30.77
2018-11-12T16:27:44.543Z,31.07
2018-11-12T16:30:13.274Z,32.47
2018-11-12T16:32:41.871Z,31.53
2018-11-12T16:35:12.836Z,33.50
2018-11-12T16:37:41.166Z,30.90
2018-11-12T16:40:09.373Z,37.00
2018-11-12T16:42:38.224Z,33.00
2018-11-12T16:45:06.341Z,32.57
2018-11-12T16:47:34.612Z,32.40
2018-11-12T16:50:02.817Z,34.23
2018-11-12T16:52:30.980Z,34.23
2018-11-12T16:54:59.230Z,31.83
2018-11-12T16:57:27.721Z,31.90
2018-11-12T16:59:55.936Z,32.00
2018-11-12T17:02:24.110Z,36.20
2018-11-12T17:04:52.360Z,32.60
2018-11-12T17:07:20.586Z,31.07
2018-11-12T17:09:48.731Z,32.50
2018-11-12T17:12:16.997Z,33.30
2018-11-12T17:14:45.194Z,35.90
2018-11-12T17:17:13.474Z,32.17
2018-11-12T17:19:41.683Z,31.73
2018-11-12T17:22:09.870Z,34.83
2018-11-12T17:24:38.076Z,33.07
2018-11-12T17:27:06.232Z,32.40
2018-11-12T17:29:34.484Z,32.13
2018-11-12T17:32:02.702Z,32.03
2018-11-12T17:34:30.871Z,34.97
2018-11-12T17:36:59.010Z,34.73
2018-11-12T17:39:27.335Z,31.73
2018-11-12T17:41:55.487Z,35.03
2018-11-12T17:44:23.894Z,32.40
2018-11-12T17:46:52.291Z,32.73
2018-11-12T17:49:20.459Z,32.37
2018-11-12T17:51:49.068Z,34.73
2018-11-12T17:54:17.238Z,32.20
2018-11-12T17:56:45.721Z,29.40
2018-11-12T17:59:13.850Z,32.67
2018-11-12T18:01:42.095Z,33.10
2018-11-12T18:04:10.309Z,32.60
2018-11-12T18:06:38.618Z,30.23
2018-11-12T18:09:08.394Z,34.43
2018-11-12T18:11:36.665Z,31.27
2018-11-12T18:14:05.504Z,33.60
2018-11-12T18:16:34.070Z,34.20
2018-11-12T18:19:02.289Z,33.40
2018-11-12T18:21:30.581Z,32.10
2018-11-12T18:23:58.834Z,35.83
2018-11-12T18:26:27.060Z,34.90
2018-11-12T18:28:55.383Z,33.00
2018-11-12T18:31:23.841Z,32.33
2018-11-12T18:33:51.924Z,34.13
2018-11-12T18:36:20.022Z,32.97
2018-11-12T18:38:48.245Z,32.77
2018-11-12T18:42:19.196Z,32.43
2018-11-12T18:44:47.451Z,32.30
2018-11-12T18:47:15.615Z,34.40
2018-11-12T18:49:43.784Z,34.20
2018-11-12T18:52:12.135Z,33.30
2018-11-12T18:54:40.549Z,32.23
2018-11-12T18:57:08.732Z,32.13
2018-11-12T18:59:36.905Z,35.67
2018-11-12T19:02:05.213Z,33.97
2018-11-12T19:04:33.308Z,33.77
2018-11-12T19:07:01.506Z,30.90
2018-11-12T19:09:29.680Z,38.00
2018-11-12T19:11:57.883Z,33.03
2018-11-12T19:14:26.067Z,33.20
2018-11-12T19:16:54.202Z,32.63
2018-11-12T19:19:22.380Z,35.60
2018-11-12T19:21:50.652Z,34.00
2018-11-12T19:24:18.852Z,33.60
2018-11-12T19:26:47.037Z,33.17
2018-11-12T19:29:15.210Z,35.43
2018-11-12T19:31:43.412Z,31.70
2018-11-12T19:34:11.509Z,35.30
2018-11-12T19:36:39.740Z,31.87
2018-11-12T19:39:08.323Z,39.40
2018-11-12T19:41:36.559Z,33.70
2018-11-12T19:44:04.996Z,31.87
2018-11-12T19:46:33.281Z,33.60
2018-11-12T19:49:01.511Z,35.03
2018-11-12T19:51:29.743Z,31.60
2018-11-12T19:53:57.938Z,31.70
2018-11-12T19:56:26.105Z,30.10
2018-11-12T19:58:54.434Z,28.67
2018-11-12T20:01:22.665Z,33.33
2018-11-12T20:03:50.832Z,31.03
2018-11-12T20:06:18.919Z,31.10
2018-11-12T20:08:47.016Z,30.53
2018-11-12T20:11:15.099Z,32.60
2018-11-12T20:13:43.188Z,30.03
2018-11-12T20:16:11.374Z,31.73
2018-11-12T20:18:39.440Z,31.17
2018-11-12T20:21:07.542Z,29.40
2018-11-12T20:23:35.645Z,31.63
2018-11-12T20:26:03.716Z,31.10
2018-11-12T20:28:31.848Z,31.77
2018-11-12T20:30:59.982Z,30.43
2018-11-12T20:33:28.144Z,29.53
2018-11-12T20:35:56.241Z,30.23
2018-11-12T20:38:24.521Z,31.10
2018-11-12T20:40:52.645Z,31.30
2018-11-12T20:43:20.844Z,31.77
2018-11-12T20:45:48.968Z,31.90
2018-11-12T20:48:17.154Z,30.20
2018-11-12T20:50:45.152Z,31.93
2018-11-12T20:53:13.216Z,32.93
2018-11-12T20:55:41.352Z,31.33
2018-11-12T20:58:09.436Z,31.27
2018-11-12T21:00:37.504Z,31.57
2018-11-12T21:03:05.647Z,32.87
2018-11-12T21:05:33.828Z,29.90
2018-11-12T21:08:01.900Z,32.47
2018-11-12T21:10:30.084Z,28.83
2018-11-12T21:12:58.147Z,30.17
2018-11-12T21:15:26.386Z,30.27
2018-11-12T21:17:54.480Z,30.30
2018-11-12T21:20:23.759Z,29.50
2018-11-12T21:22:52.030Z,30.90
2018-11-12T21:25:23.010Z,31.60
2018-11-12T21:27:51.080Z,30.57
2018-11-12T21:30:22.227Z,31.43
2018-11-12T21:32:50.417Z,31.77
2018-11-12T21:35:18.542Z,31.20
2018-11-12T21:37:47.152Z,33.93
2018-11-12T21:40:22.604Z,28.90
2018-11-12T21:42:50.706Z,29.60
2018-11-12T21:45:23.224Z,30.60
2018-11-12T21:47:51.469Z,31.67
2018-11-12T21:50:20.399Z,32.50
2018-11-12T21:52:48.680Z,29.90
2018-11-12T21:55:16.999Z,29.43
2018-11-12T21:57:45.452Z,30.47
2018-11-12T22:00:15.505Z,30.33
2018-11-12T22:02:44.159Z,29.80
2018-11-12T22:06:15.063Z,29.10
2018-11-12T22:08:43.355Z,29.60
2018-11-12T22:11:11.404Z,28.37
2018-11-12T22:13:39.683Z,30.03
2018-11-12T22:16:07.940Z,29.70
2018-11-12T22:18:36.062Z,30.37
2018-11-12T22:21:04.339Z,28.50
2018-11-12T22:23:32.430Z,29.37
2018-11-12T22:26:00.581Z,31.60
2018-11-12T22:28:28.649Z,30.33
2018-11-12T22:30:56.844Z,29.10
2018-11-12T22:33:24.958Z,28.77
2018-11-12T22:35:53.180Z,27.60
2018-11-12T22:38:21.311Z,27.37
2018-11-12T22:40:49.500Z,28.80
2018-11-12T22:43:17.665Z,29.00
2018-11-12T22:45:45.881Z,26.70
2018-11-12T22:48:14.051Z,27.90
2018-11-12T22:50:42.228Z,27.50
2018-11-12T22:53:10.403Z,28.30
2018-11-12T22:55:38.527Z,27.33
2018-11-12T22:58:06.782Z,28.20
2018-11-12T23:00:37.848Z,29.60
2018-11-12T23:03:06.784Z,27.97
2018-11-12T23:05:34.943Z,27.60
2018-11-12T23:08:03.097Z,29.67
2018-11-12T23:10:31.287Z,27.40
2018-11-12T23:12:59.395Z,28.13
2018-11-12T23:15:27.563Z,28.73
2018-11-12T23:17:55.628Z,28.30
2018-11-12T23:20:24.867Z,28.30
2018-11-12T23:22:53.259Z,27.17
2018-11-12T23:25:21.362Z,30.77
2018-11-12T23:27:50.135Z,25.83
2018-11-12T23:30:19.443Z,28.13
2018-11-12T23:32:47.529Z,27.73
2018-11-12T23:35:17.711Z,27.30
2018-11-12T23:37:46.353Z,25.33
2018-11-12T23:40:14.742Z,30.87
2018-11-12T23:42:43.467Z,28.23
2018-11-12T23:45:11.559Z,27.87
2018-11-12T23:47:39.821Z,26.47
2018-11-12T23:50:11.882Z,27.30
2018-11-12T23:52:39.959Z,26.57
2018-11-12T23:55:08.064Z,27.97
2018-11-12T23:57:36.151Z,26.73
